createdAt,value
2022-08-07T00:00:35.009Z,12.60
2022-08-07T00:02:41.678Z,12.60
2022-08-07T00:04:46.309Z,12.50
2022-08-07T00:06:51.575Z,12.50
2022-08-07T00:08:54.158Z,12.50
2022-08-07T00:10:58.364Z,12.50
2022-08-07T00:13:03.173Z,12.40
2022-08-07T00:15:19.177Z,12.40
2022-08-07T00:17:21.088Z,12.50
2022-08-07T00:19:26.130Z,12.50
2022-08-07T00:21:55.384Z,12.50
2022-08-07T00:23:58.164Z,12.50
2022-08-07T00:26:13.014Z,12.50
2022-08-07T00:28:22.136Z,12.50
2022-08-07T00:30:27.094Z,12.50
2022-08-07T00:32:30.161Z,12.40
2022-08-07T00:34:37.120Z,12.40
2022-08-07T00:36:43.130Z,12.50
2022-08-07T00:38:45.364Z,12.40
2022-08-07T00:40:47.204Z,12.30
2022-08-07T00:42:50.326Z,12.40
2022-08-07T00:44:54.547Z,12.30
2022-08-07T00:46:57.177Z,12.30
2022-08-07T00:49:02.103Z,12.30
2022-08-07T00:51:04.405Z,12.20
2022-08-07T00:53:06.320Z,12.20
2022-08-07T00:55:11.226Z,12.20
2022-08-07T00:57:13.811Z,12.20
2022-08-07T00:59:17.493Z,12.20
2022-08-07T01:01:22.477Z,12.20
2022-08-07T01:03:55.766Z,12.20
2022-08-07T01:05:53.647Z,12.20
2022-08-07T01:07:55.911Z,12.20
2022-08-07T01:10:04.798Z,12.30
2022-08-07T01:12:29.914Z,12.30
2022-08-07T01:14:32.643Z,12.30
2022-08-07T01:16:42.945Z,12.20
2022-08-07T01:18:45.300Z,12.20
2022-08-07T01:20:57.198Z,12.30
2022-08-07T01:23:12.022Z,12.30
2022-08-07T01:25:40.477Z,12.30
2022-08-07T01:27:36.979Z,12.30
2022-08-07T01:29:43.396Z,12.30
2022-08-07T01:31:48.695Z,12.30
2022-08-07T01:33:55.251Z,12.20
2022-08-07T01:36:06.218Z,12.20
2022-08-07T01:38:08.805Z,12.20
2022-08-07T01:40:15.458Z,12.30
2022-08-07T01:42:37.725Z,12.30
2022-08-07T01:44:40.084Z,12.20
2022-08-07T01:46:42.277Z,12.20
2022-08-07T01:48:46.681Z,12.10
2022-08-07T01:50:52.845Z,12.10
2022-08-07T01:52:58.847Z,12.10
2022-08-07T01:55:02.189Z,12.10
2022-08-07T01:57:08.259Z,12.00
2022-08-07T01:59:32.703Z,12.00
2022-08-07T02:01:59.843Z,11.90
2022-08-07T02:04:07.936Z,11.90
2022-08-07T02:06:30.737Z,11.90
2022-08-07T02:08:38.084Z,11.80
2022-08-07T02:10:42.231Z,11.70
2022-08-07T02:12:46.591Z,11.70
2022-08-07T02:14:53.829Z,11.70
2022-08-07T02:16:57.723Z,11.60
2022-08-07T02:19:00.054Z,11.50
2022-08-07T02:21:06.119Z,11.50
2022-08-07T02:23:10.394Z,11.50
2022-08-07T02:25:17.269Z,11.50
2022-08-07T02:27:20.813Z,11.50
2022-08-07T02:29:24.903Z,11.50
2022-08-07T02:31:29.632Z,11.50
2022-08-07T02:33:42.157Z,11.50
2022-08-07T02:36:28.181Z,11.50
2022-08-07T02:38:16.819Z,11.60
2022-08-07T02:40:30.853Z,11.60
2022-08-07T02:42:37.478Z,11.60
2022-08-07T02:44:48.188Z,11.60
2022-08-07T02:46:53.851Z,11.60
2022-08-07T02:48:57.623Z,11.60
2022-08-07T02:51:01.214Z,11.60
2022-08-07T02:53:07.159Z,11.50
2022-08-07T02:55:28.578Z,11.50
2022-08-07T02:57:41.150Z,11.50
2022-08-07T03:00:00.812Z,11.50
2022-08-07T03:02:03.664Z,11.50
2022-08-07T03:04:12.661Z,11.50
2022-08-07T03:06:26.210Z,11.50
2022-08-07T03:08:35.483Z,11.50
2022-08-07T03:10:46.358Z,11.50
2022-08-07T03:12:50.225Z,11.50
2022-08-07T03:14:54.140Z,11.60
2022-08-07T03:16:56.612Z,11.60
2022-08-07T03:18:59.265Z,11.60
2022-08-07T03:21:01.762Z,11.60
2022-08-07T03:23:04.543Z,11.70
2022-08-07T03:25:21.628Z,11.70
2022-08-07T03:27:25.193Z,11.70
2022-08-07T03:29:36.840Z,11.80
2022-08-07T03:31:42.413Z,12.50
2022-08-07T03:33:55.166Z,11.80
2022-08-07T03:35:58.603Z,11.80
2022-08-07T03:38:04.829Z,11.80
2022-08-07T03:40:16.128Z,11.80
2022-08-07T03:42:19.991Z,11.80
2022-08-07T03:44:31.856Z,11.80
2022-08-07T03:46:37.579Z,11.80
2022-08-07T03:49:02.880Z,11.90
2022-08-07T03:51:05.754Z,11.70
2022-08-07T03:53:15.633Z,11.70
2022-08-07T03:55:17.714Z,11.70
2022-08-07T03:58:34.251Z,11.60
2022-08-07T03:59:46.735Z,11.60
2022-08-07T04:02:04.089Z,11.70
2022-08-07T04:04:06.026Z,11.70
2022-08-07T04:06:09.249Z,11.70
2022-08-07T04:08:31.362Z,11.70
2022-08-07T04:10:35.146Z,11.70
2022-08-07T04:12:40.843Z,11.70
2022-08-07T04:14:43.483Z,11.80
2022-08-07T04:16:58.160Z,11.80
2022-08-07T04:19:12.481Z,11.80
2022-08-07T04:21:17.241Z,11.80
2022-08-07T04:23:19.974Z,11.90
2022-08-07T04:25:23.576Z,12.10
2022-08-07T04:27:26.624Z,11.80
2022-08-07T04:29:40.373Z,11.70
2022-08-07T04:32:09.798Z,11.70
2022-08-07T04:34:16.396Z,11.80
2022-08-07T04:36:22.687Z,11.80
2022-08-07T04:38:28.292Z,11.80
2022-08-07T04:40:31.428Z,11.90
2022-08-07T04:42:34.603Z,11.80
2022-08-07T04:44:54.604Z,11.80
2022-08-07T04:47:10.099Z,11.80
2022-08-07T04:49:37.799Z,11.80
2022-08-07T04:51:49.262Z,11.80
2022-08-07T04:54:05.547Z,11.80
2022-08-07T04:58:15.138Z,11.90
2022-08-07T04:59:18.498Z,11.90
2022-08-07T05:01:14.006Z,11.90
2022-08-07T05:03:59.843Z,11.90
2022-08-07T05:05:57.246Z,11.90
2022-08-07T05:08:18.248Z,12.00
2022-08-07T05:10:58.381Z,12.00
2022-08-07T05:14:55.447Z,12.10
2022-08-07T05:15:38.955Z,12.20
2022-08-07T05:17:51.623Z,12.20
2022-08-07T05:19:57.590Z,12.30
2022-08-07T05:22:01.758Z,12.40
2022-08-07T05:24:06.594Z,12.40
2022-08-07T05:26:18.785Z,12.50
2022-08-07T05:28:26.815Z,12.60
2022-08-07T05:30:30.164Z,12.70
2022-08-07T05:32:38.491Z,12.70
2022-08-07T05:34:41.924Z,12.90
2022-08-07T05:36:48.896Z,12.90
2022-08-07T05:39:00.442Z,13.10
2022-08-07T05:41:12.246Z,13.20
2022-08-07T05:43:18.688Z,13.80
2022-08-07T05:45:46.239Z,13.50
2022-08-07T05:48:02.661Z,13.70
2022-08-07T05:50:06.509Z,13.80
2022-08-07T05:52:11.430Z,14.00
2022-08-07T05:54:44.301Z,14.10
2022-08-07T05:56:37.043Z,14.30
2022-08-07T05:58:40.333Z,14.40
2022-08-07T06:00:46.279Z,14.50
2022-08-07T06:02:53.771Z,14.60
2022-08-07T06:04:57.493Z,14.70
2022-08-07T06:07:04.438Z,14.80
2022-08-07T06:09:07.151Z,14.90
2022-08-07T06:11:09.564Z,15.00
2022-08-07T06:13:13.315Z,15.10
2022-08-07T06:15:19.904Z,15.20
2022-08-07T06:17:23.084Z,15.30
2022-08-07T06:19:52.070Z,15.40
2022-08-07T06:22:15.725Z,15.50
2022-08-07T06:24:45.763Z,15.70
2022-08-07T06:26:41.280Z,15.90
2022-08-07T06:28:53.522Z,16.00
2022-08-07T06:30:55.998Z,16.10
2022-08-07T06:32:57.996Z,16.20
2022-08-07T06:35:00.163Z,16.40
2022-08-07T06:37:02.860Z,16.50
2022-08-07T06:40:13.219Z,16.70
2022-08-07T06:42:02.567Z,16.80
2022-08-07T06:43:59.278Z,16.90
2022-08-07T06:46:03.816Z,17.00
2022-08-07T06:48:06.780Z,17.20
2022-08-07T06:50:14.390Z,17.30
2022-08-07T06:52:17.211Z,17.40
2022-08-07T06:55:32.588Z,17.40
2022-08-07T06:56:57.006Z,17.50
2022-08-07T07:00:12.291Z,17.80
2022-08-07T07:01:21.987Z,17.80
2022-08-07T07:03:39.456Z,18.00
2022-08-07T07:06:05.488Z,18.10
2022-08-07T07:08:12.286Z,18.30
2022-08-07T07:10:14.891Z,18.40
2022-08-07T07:12:33.481Z,18.50
2022-08-07T07:14:45.635Z,18.50
2022-08-07T07:16:50.885Z,18.60
2022-08-07T07:18:57.494Z,18.60
2022-08-07T07:21:03.918Z,18.70
2022-08-07T07:24:05.553Z,18.80
2022-08-07T07:26:34.001Z,18.80
2022-08-07T07:28:42.447Z,18.80
2022-08-07T07:30:38.429Z,18.90
2022-08-07T07:32:42.742Z,19.00
2022-08-07T07:34:46.619Z,19.10
2022-08-07T07:36:54.215Z,19.20
2022-08-07T07:38:56.742Z,19.20
2022-08-07T07:41:02.725Z,19.30
2022-08-07T07:43:14.995Z,19.20
2022-08-07T07:46:33.409Z,19.10
2022-08-07T07:47:52.801Z,19.10
2022-08-07T07:50:33.642Z,19.20
2022-08-07T07:52:20.774Z,19.30
2022-08-07T07:54:26.646Z,19.50
2022-08-07T07:56:31.755Z,19.60
2022-08-07T07:58:40.785Z,19.70
2022-08-07T08:00:45.717Z,19.80
2022-08-07T08:03:05.065Z,19.90
2022-08-07T08:05:14.430Z,19.90
2022-08-07T08:07:30.024Z,20.00
2022-08-07T08:09:52.586Z,20.10
2022-08-07T08:12:05.090Z,20.20
2022-08-07T08:14:07.243Z,20.20
2022-08-07T08:18:31.962Z,20.20
2022-08-07T08:18:36.900Z,20.30
2022-08-07T08:20:34.560Z,20.30
2022-08-07T08:23:01.339Z,20.30
2022-08-07T08:25:41.852Z,20.40
2022-08-07T08:27:57.073Z,20.50
2022-08-07T08:30:07.825Z,20.50
2022-08-07T08:32:25.441Z,20.50
2022-08-07T08:34:41.147Z,20.50
2022-08-07T08:36:49.402Z,20.60
2022-08-07T08:39:03.463Z,20.70
2022-08-07T08:41:05.400Z,20.60
2022-08-07T08:43:07.308Z,20.60
2022-08-07T08:45:13.336Z,20.60
2022-08-07T08:47:19.777Z,20.50
2022-08-07T08:49:32.680Z,20.60
2022-08-07T08:52:00.782Z,20.80
2022-08-07T08:54:28.521Z,20.90
2022-08-07T08:56:33.029Z,20.70
2022-08-07T08:58:40.723Z,20.50
2022-08-07T09:00:48.628Z,20.60
2022-08-07T09:03:07.542Z,20.50
2022-08-07T09:05:10.216Z,20.40
2022-08-07T09:07:24.452Z,20.40
2022-08-07T09:09:29.995Z,20.30
2022-08-07T09:11:55.441Z,20.20
2022-08-07T09:14:08.790Z,20.10
2022-08-07T09:16:34.459Z,20.20
2022-08-07T09:18:53.150Z,20.40
2022-08-07T09:21:01.658Z,20.70
2022-08-07T09:24:30.792Z,21.10
2022-08-07T09:25:37.738Z,21.30
2022-08-07T09:27:59.613Z,21.40
2022-08-07T09:30:08.975Z,21.50
2022-08-07T09:32:31.096Z,21.60
2022-08-07T09:34:56.088Z,21.70
2022-08-07T09:37:01.903Z,21.90
2022-08-07T09:39:52.618Z,22.00
2022-08-07T09:41:59.078Z,22.10
2022-08-07T09:44:30.028Z,22.10
2022-08-07T09:47:50.853Z,22.20
2022-08-07T09:50:03.951Z,22.20
2022-08-07T09:52:16.613Z,22.00
2022-08-07T09:54:40.413Z,22.00
2022-08-07T09:56:46.766Z,22.10
2022-08-07T09:59:13.885Z,22.10
2022-08-07T10:01:50.538Z,22.30
2022-08-07T10:04:06.535Z,22.50
2022-08-07T10:06:24.437Z,22.40
2022-08-07T10:08:45.666Z,22.40
2022-08-07T10:12:01.259Z,22.30
2022-08-07T10:14:11.276Z,22.30
2022-08-07T10:16:21.911Z,22.60
2022-08-07T10:18:50.312Z,22.60
2022-08-07T10:21:20.100Z,22.50
2022-08-07T10:24:04.932Z,22.50
2022-08-07T10:25:59.036Z,22.70
2022-08-07T10:28:41.113Z,22.80
2022-08-07T10:30:57.037Z,23.00
2022-08-07T10:33:19.305Z,23.00
2022-08-07T10:35:56.106Z,23.00
2022-08-07T10:38:21.857Z,22.90
2022-08-07T10:40:38.953Z,23.00
2022-08-07T10:42:41.481Z,23.30
2022-08-07T10:44:52.597Z,23.50
2022-08-07T10:47:11.707Z,23.60
2022-08-07T10:49:24.725Z,23.60
2022-08-07T10:52:13.268Z,23.60
2022-08-07T10:54:32.026Z,23.70
2022-08-07T10:56:55.246Z,23.90
2022-08-07T10:59:06.505Z,23.90
2022-08-07T11:01:16.223Z,23.60
2022-08-07T11:03:28.088Z,23.70
2022-08-07T11:05:50.914Z,23.80
2022-08-07T11:08:06.868Z,23.80
2022-08-07T11:10:16.594Z,23.80
2022-08-07T11:12:32.034Z,23.70
2022-08-07T11:14:57.018Z,23.80
2022-08-07T11:17:07.298Z,24.00
2022-08-07T11:19:21.747Z,24.00
2022-08-07T11:21:35.177Z,24.00
2022-08-07T11:24:08.452Z,23.80
2022-08-07T11:26:14.135Z,23.70
2022-08-07T11:28:19.299Z,23.70
2022-08-07T11:30:39.221Z,23.80
2022-08-07T11:32:49.867Z,24.10
2022-08-07T11:34:59.758Z,24.20
2022-08-07T11:37:38.671Z,24.30
2022-08-07T11:40:00.415Z,24.10
2022-08-07T11:42:16.971Z,23.90
2022-08-07T11:44:52.683Z,23.80
2022-08-07T11:47:17.938Z,23.90
2022-08-07T11:50:25.304Z,24.10
2022-08-07T11:52:29.492Z,24.40
2022-08-07T11:54:56.557Z,24.40
2022-08-07T11:57:02.254Z,24.50
2022-08-07T12:00:10.213Z,24.70
2022-08-07T12:02:20.759Z,24.90
2022-08-07T12:04:50.359Z,25.00
2022-08-07T12:07:03.056Z,24.90
2022-08-07T12:09:24.873Z,24.90
2022-08-07T12:11:35.291Z,24.80
2022-08-07T12:14:01.595Z,24.90
2022-08-07T12:16:08.871Z,24.90
2022-08-07T12:18:22.300Z,25.00
2022-08-07T12:20:42.995Z,25.20
2022-08-07T12:23:09.042Z,25.30
2022-08-07T12:26:22.201Z,25.40
2022-08-07T12:28:09.793Z,25.30
2022-08-07T12:30:13.171Z,25.30
2022-08-07T12:32:19.374Z,25.30
2022-08-07T12:34:21.889Z,25.20
2022-08-07T12:36:33.471Z,25.10
2022-08-07T12:38:43.016Z,24.90
2022-08-07T12:40:50.299Z,24.80
2022-08-07T12:42:55.201Z,24.90
2022-08-07T12:45:05.918Z,24.90
2022-08-07T12:47:08.627Z,24.90
2022-08-07T12:49:39.404Z,24.90
2022-08-07T12:51:51.284Z,24.90
2022-08-07T12:54:36.805Z,24.90
2022-08-07T12:56:51.021Z,24.90
2022-08-07T12:58:57.892Z,24.60
2022-08-07T13:01:07.851Z,24.40
2022-08-07T13:03:26.925Z,24.10
2022-08-07T13:06:03.893Z,23.70
2022-08-07T13:08:21.712Z,23.50
2022-08-07T13:10:51.355Z,23.50
2022-08-07T13:13:01.360Z,23.70
2022-08-07T13:15:08.444Z,23.70
2022-08-07T13:17:18.374Z,23.60
2022-08-07T13:19:46.036Z,23.60
2022-08-07T13:22:19.446Z,23.50
2022-08-07T13:24:29.254Z,23.40
2022-08-07T13:26:53.527Z,23.20
2022-08-07T13:29:01.013Z,23.10
2022-08-07T13:31:13.202Z,22.90
2022-08-07T13:34:14.718Z,22.80
2022-08-07T13:36:17.843Z,22.70
2022-08-07T13:38:22.912Z,22.50
2022-08-07T13:40:35.882Z,22.30
2022-08-07T13:42:43.894Z,22.30
2022-08-07T13:44:55.312Z,22.30
2022-08-07T13:47:15.161Z,22.50
2022-08-07T13:50:35.131Z,22.80
2022-08-07T13:52:27.100Z,22.90
2022-08-07T13:54:16.443Z,23.10
2022-08-07T13:56:35.297Z,23.20
2022-08-07T13:59:01.048Z,23.20
2022-08-07T14:01:12.038Z,23.20
2022-08-07T14:03:14.934Z,23.00
2022-08-07T14:05:38.284Z,23.00
2022-08-07T14:08:00.194Z,23.00
2022-08-07T14:10:21.562Z,23.00
2022-08-07T14:12:49.153Z,23.10
2022-08-07T14:15:01.559Z,23.40
2022-08-07T14:17:32.401Z,23.60
2022-08-07T14:22:03.372Z,23.50
2022-08-07T14:22:40.943Z,23.70
2022-08-07T14:24:35.649Z,23.30
2022-08-07T14:26:40.734Z,23.00
2022-08-07T14:28:59.008Z,22.80
2022-08-07T14:31:03.473Z,22.70
2022-08-07T14:33:06.462Z,22.60
2022-08-07T14:35:10.779Z,22.60
2022-08-07T14:37:16.397Z,22.70
2022-08-07T14:40:14.766Z,22.70
2022-08-07T14:42:20.168Z,22.80
2022-08-07T14:44:11.723Z,22.70
2022-08-07T14:46:18.937Z,22.60
2022-08-07T14:48:39.112Z,22.50
2022-08-07T14:50:48.955Z,22.40
2022-08-07T14:52:54.713Z,22.20
2022-08-07T14:54:58.512Z,22.10
2022-08-07T14:57:02.839Z,22.00
2022-08-07T14:59:13.358Z,22.00
2022-08-07T15:01:22.281Z,22.00
2022-08-07T15:03:52.339Z,22.00
2022-08-07T15:06:04.008Z,22.10
2022-08-07T15:08:12.587Z,22.00
2022-08-07T15:10:26.149Z,21.90
2022-08-07T15:12:32.319Z,21.80
2022-08-07T15:15:59.990Z,21.80
2022-08-07T15:18:14.571Z,21.90
2022-08-07T15:23:20.200Z,22.10
2022-08-07T15:25:36.648Z,22.20
2022-08-07T15:28:33.153Z,22.30
2022-08-07T15:30:16.803Z,22.30
2022-08-07T15:32:39.978Z,22.30
2022-08-07T15:34:50.752Z,22.20
2022-08-07T15:39:57.869Z,22.00
2022-08-07T15:44:24.582Z,21.90
2022-08-07T15:46:37.766Z,21.80
2022-08-07T15:51:11.837Z,21.90
2022-08-07T15:53:52.989Z,22.10
2022-08-07T15:56:02.169Z,22.20
2022-08-07T15:58:11.653Z,22.40
2022-08-07T16:00:33.448Z,22.40
2022-08-07T16:02:40.814Z,22.20
2022-08-07T16:04:44.011Z,22.10
2022-08-07T16:06:56.211Z,22.10
2022-08-07T16:09:07.633Z,22.00
2022-08-07T16:11:40.221Z,21.90
2022-08-07T16:13:58.372Z,21.80
2022-08-07T16:16:43.165Z,21.80
2022-08-07T16:18:49.693Z,21.90
2022-08-07T16:22:01.578Z,22.10
2022-08-07T16:23:54.563Z,22.30
2022-08-07T16:26:17.516Z,22.40
2022-08-07T16:30:07.682Z,22.50
2022-08-07T16:31:50.174Z,22.50
2022-08-07T16:34:01.859Z,22.40
2022-08-07T16:36:19.804Z,22.30
2022-08-07T16:39:00.675Z,22.20
2022-08-07T16:41:28.266Z,22.20
2022-08-07T16:44:46.286Z,22.20
2022-08-07T16:47:18.654Z,22.40
2022-08-07T16:50:20.391Z,22.70
2022-08-07T16:52:41.694Z,22.80
2022-08-07T16:54:54.182Z,23.00
2022-08-07T16:58:03.242Z,23.00
2022-08-07T17:00:06.926Z,22.70
2022-08-07T17:02:12.507Z,22.20
2022-08-07T17:04:29.576Z,21.80
2022-08-07T17:07:03.457Z,21.60
2022-08-07T17:10:06.465Z,21.30
2022-08-07T17:12:04.456Z,21.10
2022-08-07T17:14:18.277Z,20.90
2022-08-07T17:16:28.607Z,20.70
2022-08-07T17:18:57.392Z,20.50
2022-08-07T17:21:02.744Z,20.50
2022-08-07T17:23:32.204Z,20.30
2022-08-07T17:25:47.587Z,20.30
2022-08-07T17:28:06.765Z,20.30
2022-08-07T17:30:20.304Z,20.20
2022-08-07T17:32:37.568Z,20.30
2022-08-07T17:35:51.679Z,20.40
2022-08-07T17:38:06.859Z,20.50
2022-08-07T17:40:35.725Z,20.80
2022-08-07T17:42:59.606Z,21.60
2022-08-07T17:45:14.909Z,22.00
2022-08-07T17:47:42.796Z,22.10
2022-08-07T17:50:00.349Z,21.90
2022-08-07T17:52:05.593Z,21.60
2022-08-07T17:54:40.227Z,21.30
2022-08-07T17:56:49.708Z,21.10
2022-08-07T17:58:54.529Z,20.90
2022-08-07T18:01:21.028Z,20.70
2022-08-07T18:04:04.505Z,20.60
2022-08-07T18:06:16.619Z,20.50
2022-08-07T18:08:59.831Z,20.30
2022-08-07T18:11:53.751Z,20.20
2022-08-07T18:14:03.286Z,20.10
2022-08-07T18:16:30.944Z,20.00
2022-08-07T18:21:02.721Z,19.90
2022-08-07T18:21:37.318Z,19.70
2022-08-07T18:23:57.063Z,19.60
2022-08-07T18:26:14.957Z,19.60
2022-08-07T18:28:57.705Z,19.50
2022-08-07T18:31:09.454Z,19.40
2022-08-07T18:34:06.670Z,19.30
2022-08-07T18:36:58.191Z,19.20
2022-08-07T18:40:08.089Z,19.10
2022-08-07T18:41:53.022Z,19.00
2022-08-07T18:44:26.399Z,19.00
2022-08-07T18:46:47.737Z,18.90
2022-08-07T18:50:30.473Z,18.90
2022-08-07T18:52:54.345Z,18.80
2022-08-07T18:55:43.047Z,18.70
2022-08-07T18:57:58.542Z,18.70
2022-08-07T19:00:34.430Z,18.70
2022-08-07T19:03:11.898Z,18.60
2022-08-07T19:05:20.947Z,18.60
2022-08-07T19:07:51.758Z,18.50
2022-08-07T19:10:10.943Z,18.50
2022-08-07T19:12:26.539Z,18.40
2022-08-07T19:15:00.431Z,18.40
2022-08-07T19:17:52.451Z,18.30
2022-08-07T19:20:28.847Z,18.30
2022-08-07T19:22:44.829Z,18.30
2022-08-07T19:24:48.690Z,18.20
2022-08-07T19:28:30.628Z,18.20
2022-08-07T19:31:03.462Z,18.10
2022-08-07T19:32:10.264Z,18.10
2022-08-07T19:34:32.405Z,18.10
2022-08-07T19:36:43.860Z,18.10
2022-08-07T19:38:58.435Z,18.00
2022-08-07T19:41:00.926Z,18.00
2022-08-07T19:43:44.279Z,18.00
2022-08-07T19:46:04.846Z,17.90
2022-08-07T19:48:19.014Z,17.90
2022-08-07T19:50:41.325Z,17.80
2022-08-07T19:52:46.177Z,17.80
2022-08-07T19:55:02.817Z,17.70
2022-08-07T19:58:03.350Z,17.70
2022-08-07T19:59:40.654Z,17.70
2022-08-07T20:01:56.976Z,17.60
2022-08-07T20:04:03.061Z,17.60
2022-08-07T20:06:15.341Z,17.90
2022-08-07T20:08:23.728Z,17.50
2022-08-07T20:10:51.929Z,17.40
2022-08-07T20:13:00.357Z,17.40
2022-08-07T20:15:22.019Z,17.30
2022-08-07T20:17:26.954Z,17.20
2022-08-07T20:19:48.026Z,17.20
2022-08-07T20:21:55.914Z,17.20
2022-08-07T20:24:04.296Z,17.10
2022-08-07T20:26:10.032Z,17.10
2022-08-07T20:28:15.066Z,17.10
2022-08-07T20:30:22.327Z,17.10
2022-08-07T20:32:44.946Z,17.10
2022-08-07T20:34:51.331Z,17.10
2022-08-07T20:36:57.643Z,16.90
2022-08-07T20:39:11.626Z,17.00
2022-08-07T20:41:34.036Z,16.90
2022-08-07T20:43:47.427Z,17.00
2022-08-07T20:46:26.189Z,16.90
2022-08-07T20:48:28.727Z,17.00
2022-08-07T20:50:33.438Z,16.90
2022-08-07T20:52:51.931Z,16.80
2022-08-07T20:54:56.132Z,17.00
2022-08-07T20:57:04.458Z,16.90
2022-08-07T21:00:04.484Z,16.90
2022-08-07T21:01:45.402Z,16.80
2022-08-07T21:04:19.559Z,16.80
2022-08-07T21:06:25.976Z,16.70
2022-08-07T21:08:46.660Z,16.60
2022-08-07T21:10:50.574Z,16.60
2022-08-07T21:13:01.297Z,16.70
2022-08-07T21:15:08.156Z,16.60
2022-08-07T21:18:03.662Z,16.60
2022-08-07T21:19:51.601Z,16.60
2022-08-07T21:22:07.376Z,16.50
2022-08-07T21:24:26.432Z,16.40
2022-08-07T21:26:55.018Z,16.30
2022-08-07T21:29:18.325Z,16.20
2022-08-07T21:32:41.662Z,16.10
2022-08-07T21:34:22.397Z,16.00
2022-08-07T21:36:59.385Z,15.90
2022-08-07T21:39:45.399Z,15.80
2022-08-07T21:42:04.893Z,15.80
2022-08-07T21:44:29.949Z,15.80
2022-08-07T21:46:46.247Z,15.70
2022-08-07T21:48:58.476Z,15.70
2022-08-07T21:51:31.965Z,15.60
2022-08-07T21:53:52.371Z,15.60
2022-08-07T21:56:16.842Z,15.50
2022-08-07T21:58:53.999Z,15.50
2022-08-07T22:01:02.940Z,15.40
2022-08-07T22:03:16.461Z,15.40
2022-08-07T22:05:45.614Z,15.40
2022-08-07T22:07:59.328Z,15.30
2022-08-07T22:10:05.846Z,15.40
2022-08-07T22:12:17.783Z,15.30
2022-08-07T22:14:23.841Z,15.40
2022-08-07T22:16:56.346Z,15.40
2022-08-07T22:19:23.494Z,15.30
2022-08-07T22:22:01.858Z,15.30
2022-08-07T22:24:21.808Z,15.30
2022-08-07T22:27:03.591Z,15.30
2022-08-07T22:29:15.680Z,15.30
2022-08-07T22:31:56.164Z,15.20
2022-08-07T22:34:05.894Z,15.20
2022-08-07T22:36:38.534Z,15.10
2022-08-07T22:39:07.452Z,15.20
2022-08-07T22:42:03.045Z,15.10
2022-08-07T22:43:56.637Z,15.10
2022-08-07T22:47:02.300Z,15.10
2022-08-07T22:48:55.310Z,15.10
2022-08-07T22:51:24.765Z,14.90
2022-08-07T22:54:08.014Z,15.10
2022-08-07T22:56:16.000Z,15.00
2022-08-07T22:58:28.085Z,15.00
2022-08-07T23:00:57.532Z,15.00
2022-08-07T23:03:23.812Z,15.00
2022-08-07T23:06:14.769Z,14.90
2022-08-07T23:08:23.863Z,14.90
2022-08-07T23:10:44.352Z,14.90
2022-08-07T23:12:51.960Z,14.90
2022-08-07T23:14:56.743Z,14.90
2022-08-07T23:17:30.033Z,14.90
2022-08-07T23:20:17.346Z,14.90
2022-08-07T23:22:56.906Z,14.80
2022-08-07T23:25:12.592Z,14.80
2022-08-07T23:28:22.288Z,14.80
2022-08-07T23:30:37.565Z,14.80
2022-08-07T23:34:19.741Z,14.70
2022-08-07T23:35:37.718Z,14.70
2022-08-07T23:38:19.269Z,14.70
2022-08-07T23:41:02.864Z,14.70
2022-08-07T23:43:42.000Z,14.70
2022-08-07T23:46:23.610Z,14.70
2022-08-07T23:48:52.271Z,14.60
2022-08-07T23:53:01.319Z,14.60
2022-08-07T23:53:56.175Z,14.60
2022-08-07T23:56:13.204Z,14.60
2022-08-07T23:58:25.280Z,14.60
